Siam — SGIP — position and weather

sailwx.info

Track history (hours):
 
Tides and Currents Weather Stations Pressure Air Temp Water Temp Dewpoint Dewpoint Depression Visibility Wind Speed Wind Dir Waves Ship Positions

Siam

Last reported at 2014-Oct-21 11:32 UTC. Time now 2014-Oct-21 12:05 UTC.
Position N 55°60' E 012°45'.

Length 22 m.

Type: Passenger vessel. MMSI: 265572320.

Date/timePositionNaut miles runAvg speedWind from/ knotsBaromVisibWave heightAir tempDewpointWater temp
2014-Oct-21 11:32N 55°60' E 012°45'0 0.0
2014-Oct-21 10:32N 55°60' E 012°45'0 0.0
2014-Oct-21 09:32N 55°60' E 012°45'0 0.0
2014-Oct-21 08:32N 55°60' E 012°45'0 0.0
2014-Oct-21 07:32N 55°60' E 012°45'0 0.0
2014-Oct-21 06:32N 55°60' E 012°45'0 0.0
2014-Oct-21 05:32N 55°60' E 012°45'0 0.0
2014-Oct-21 04:32N 55°60' E 012°45'0 0.0
2014-Oct-21 03:32N 55°60' E 012°45'0 0.0
2014-Oct-21 02:32N 55°60' E 012°45'0 0.0
2014-Oct-21 01:32N 55°60' E 012°45'0 0.0
2014-Oct-21 00:32N 55°60' E 012°45'0 0.0
2014-Oct-20 23:32N 55°60' E 012°45'0 0.0
2014-Oct-20 22:32N 55°60' E 012°45'0 0.0
2014-Oct-20 21:32N 55°60' E 012°45'0 0.0
2014-Oct-20 20:32N 55°60' E 012°45'0 0.0
2014-Oct-20 19:32N 55°60' E 012°45'0 0.0
2014-Oct-20 18:32N 55°60' E 012°45'0 0.0
2014-Oct-20 17:32N 55°60' E 012°45'0 0.0
2014-Oct-20 16:32N 55°60' E 012°45'0 0.0
2014-Oct-20 15:32N 55°60' E 012°45'0 0.0
2014-Oct-20 14:32N 55°60' E 012°45'0 0.0
2014-Oct-20 13:32N 55°60' E 012°45'0 0.0
2014-Oct-20 12:32N 55°60' E 012°45'0 0.0
2014-Oct-20 11:32N 55°60' E 012°45'0 0.0
2014-Oct-20 10:32N 55°60' E 012°45'0 0.0
2014-Oct-20 09:32N 55°60' E 012°45'0 0.0
2014-Oct-20 08:32N 55°60' E 012°45'0 0.0
2014-Oct-20 07:29N 55°60' E 012°45'0 0.0
2014-Oct-20 06:32N 55°60' E 012°45'0 0.0
2014-Oct-20 05:32N 55°60' E 012°45'0 0.0
2014-Oct-20 04:32N 55°60' E 012°45'0 0.0
2014-Oct-20 03:32N 55°60' E 012°45'0 0.0
2014-Oct-20 02:32N 55°60' E 012°45'0 0.0
2014-Oct-20 01:32N 55°60' E 012°45'0 0.0
2014-Oct-20 00:32N 55°60' E 012°45'0 0.0
2014-Oct-19 23:32N 55°60' E 012°45'0 0.0
2014-Oct-19 22:32N 55°60' E 012°45'0 0.0
2014-Oct-19 21:32N 55°60' E 012°45'0 0.0
2014-Oct-19 20:32N 55°60' E 012°45'0 0.0
2014-Oct-19 19:30N 55°60' E 012°45'0 0.0
2014-Oct-19 18:32N 55°60' E 012°45'0 0.0
2014-Oct-19 17:33N 55°60' E 012°45'0 0.0
2014-Oct-19 16:33N 55°60' E 012°45'0 0.0
2014-Oct-19 15:33N 55°60' E 012°45'0 0.0
2014-Oct-19 14:33N 55°60' E 012°45'0 0.0
2014-Oct-19 13:33N 55°60' E 012°45'2 2.0
2014-Oct-19 12:31N 56°01' E 012°42'0 0.5
2014-Oct-19 11:33N 56°00' E 012°42'0 0.2
2014-Oct-19 10:32N 56°00' E 012°42'2 1.6
2014-Oct-19 09:31N 55°59' E 012°40'0 0.3
2014-Oct-19 08:32N 55°59' E 012°39'2 1.9
2014-Oct-19 07:33N 56°01' E 012°38'1 0.7
2014-Oct-19 06:33N 56°02' E 012°37'4 4.3
2014-Oct-19 05:31N 55°60' E 012°45'0 0.0
2014-Oct-19 04:31N 55°60' E 012°45'0 0.0
2014-Oct-19 03:31N 55°60' E 012°45'0 0.0
2014-Oct-19 02:31N 55°60' E 012°45'0 0.0
2014-Oct-19 01:31N 55°60' E 012°45'0 0.0
2014-Oct-19 00:31N 55°60' E 012°45'0 0.0
2014-Oct-18 23:31N 55°60' E 012°45'0 0.0
2014-Oct-18 22:28N 55°60' E 012°45'0 0.0
2014-Oct-18 21:28N 55°60' E 012°45'0 0.0
2014-Oct-18 20:31N 55°60' E 012°45'0 0.0
2014-Oct-18 19:31N 55°60' E 012°45'0 0.0
2014-Oct-18 18:31N 55°60' E 012°45'0 0.0
2014-Oct-18 17:31N 55°60' E 012°45'0 0.0
2014-Oct-18 16:31N 55°60' E 012°45'0 0.0
2014-Oct-18 15:31N 55°60' E 012°45'0 0.0
2014-Oct-18 14:31N 55°60' E 012°45'0 0.0
2014-Oct-18 13:31N 55°60' E 012°45'0 0.0
2014-Oct-18 12:31N 55°60' E 012°45'0 0.0
2014-Oct-18 11:31N 55°60' E 012°45'0 0.0
2014-Oct-18 10:28N 55°60' E 012°45'0 0.0
2014-Oct-18 09:31N 55°60' E 012°45'0 0.0
2014-Oct-18 08:31N 55°60' E 012°45'0 0.0
2014-Oct-18 07:31N 55°60' E 012°45'0 0.0
2014-Oct-18 06:31N 55°60' E 012°45'0 0.0
2014-Oct-18 05:31N 55°60' E 012°45'0 0.0
2014-Oct-18 04:31N 55°60' E 012°45'0 0.0
2014-Oct-18 03:31N 55°60' E 012°45'0 0.0
2014-Oct-18 02:31N 55°60' E 012°45'0 0.0
2014-Oct-18 01:31N 55°60' E 012°45'0 0.0
2014-Oct-18 00:28N 55°60' E 012°45'0 0.0
2014-Oct-17 23:31N 55°60' E 012°45'0 0.0
2014-Oct-17 22:31N 55°60' E 012°45'0 0.0
2014-Oct-17 21:31N 55°60' E 012°45'0 0.0
2014-Oct-17 20:28N 55°60' E 012°45'0 0.0
2014-Oct-17 19:31N 55°60' E 012°45'0 0.0
2014-Oct-17 18:31N 55°60' E 012°45'0 0.0
2014-Oct-17 17:31N 55°60' E 012°45'0 0.0
2014-Oct-17 16:31N 55°60' E 012°45'0 0.0
2014-Oct-17 15:31N 55°60' E 012°45'0 0.0
2014-Oct-17 14:31N 55°60' E 012°45'0 0.0
2014-Oct-17 13:31N 55°60' E 012°45'0 0.0
2014-Oct-17 12:28N 55°60' E 012°45'0 0.0
2014-Oct-17 11:31N 55°60' E 012°45'0 0.0
2014-Oct-17 10:28N 55°60' E 012°45'2 2.1
2014-Oct-17 09:32N 55°60' E 012°41'2 2.4
2014-Oct-17 08:33N 56°02' E 012°38'2 2.3
2014-Oct-17 07:31N 55°59' E 012°39'0 0.0
2014-Oct-17 06:33N 55°59' E 012°39'3 2.8
2014-Oct-17 05:31N 55°60' E 012°45'0 0.0
2014-Oct-17 04:31N 55°60' E 012°45'0 0.0
2014-Oct-17 03:31N 55°60' E 012°45'0 0.0
2014-Oct-17 02:31N 55°60' E 012°45'0 0.0
2014-Oct-17 01:31N 55°60' E 012°45'0 0.0
2014-Oct-17 00:31N 55°60' E 012°45'0 0.0
2014-Oct-16 23:31N 55°60' E 012°45'0 0.0
2014-Oct-16 22:31N 55°60' E 012°45'0 0.0
2014-Oct-16 21:31N 55°60' E 012°45'0 0.0
2014-Oct-16 20:31N 55°60' E 012°45'0 0.0
2014-Oct-16 19:31N 55°60' E 012°45'0 0.0
2014-Oct-16 18:31N 55°60' E 012°45'0 0.0
2014-Oct-16 17:31N 55°60' E 012°45'0 0.0
2014-Oct-16 16:31N 55°60' E 012°45'0 0.0
2014-Oct-16 15:31N 55°60' E 012°45'0 0.0
2014-Oct-16 14:32N 55°60' E 012°45'0 0.0
2014-Oct-16 13:32N 55°60' E 012°45'0 0.0
2014-Oct-16 12:32N 55°60' E 012°45'2 2.3
2014-Oct-16 11:33N 56°01' E 012°41'3 2.7
2014-Oct-16 10:33N 56°04' E 012°40'1 0.7
2014-Oct-16 09:33N 56°03' E 012°41'4 3.9
2014-Oct-16 08:33N 55°59' E 012°39'0 0.4
2014-Oct-16 07:31N 55°60' E 012°39'1 0.7
2014-Oct-16 06:31N 55°59' E 012°40'3 3.0
2014-Oct-16 05:33N 55°60' E 012°45'0 0.0
2014-Oct-16 04:33N 55°60' E 012°45'0 0.0
2014-Oct-16 03:33N 55°60' E 012°45'0 0.0
2014-Oct-16 02:33N 55°60' E 012°45'0 0.0
2014-Oct-16 01:33N 55°60' E 012°45'0 0.0
2014-Oct-16 00:33N 55°60' E 012°45'0 0.0
2014-Oct-15 23:33N 55°60' E 012°45'0 0.0
2014-Oct-15 22:33N 55°60' E 012°45'0 0.0
2014-Oct-15 21:33N 55°60' E 012°45'0 0.0
2014-Oct-15 20:33N 55°60' E 012°45'0 0.0
2014-Oct-15 19:27N 55°60' E 012°45'0 0.0
2014-Oct-15 18:33N 55°60' E 012°45'0 0.0
2014-Oct-15 17:30N 55°60' E 012°45'0 0.0
2014-Oct-15 16:33N 55°60' E 012°45'0 0.0
2014-Oct-15 15:33N 55°60' E 012°45'0 0.0
2014-Oct-15 14:33N 55°60' E 012°45'0 0.0
2014-Oct-15 13:33N 55°60' E 012°45'0 0.0
2014-Oct-15 12:33N 55°60' E 012°45'0 0.0
2014-Oct-15 11:33N 55°60' E 012°45'0 0.0
2014-Oct-15 10:33N 55°60' E 012°45'0 0.0
2014-Oct-15 09:33N 55°60' E 012°45'0 0.0
2014-Oct-15 08:33N 55°60' E 012°45'0 0.0
2014-Oct-15 07:33N 55°60' E 012°45'0 0.0
2014-Oct-15 06:33N 55°60' E 012°45'0 0.0
2014-Oct-15 05:33N 55°60' E 012°45'0 0.0
2014-Oct-15 04:33N 55°60' E 012°45'0 0.0
2014-Oct-15 03:30N 55°60' E 012°45'0 0.0
2014-Oct-15 02:33N 55°60' E 012°45'0 0.0
2014-Oct-15 01:33N 55°60' E 012°45'0 0.0
2014-Oct-15 00:33N 55°60' E 012°45'0 0.0
2014-Oct-14 23:33N 55°60' E 012°45'0 0.0
2014-Oct-14 22:33N 55°60' E 012°45'0 0.0
2014-Oct-14 21:33N 55°60' E 012°45'0 0.0
2014-Oct-14 20:33N 55°60' E 012°45'0 0.0
2014-Oct-14 19:33N 55°60' E 012°45'0 0.0
2014-Oct-14 18:33N 55°60' E 012°45'0 0.0
2014-Oct-14 17:33N 55°60' E 012°45'0 0.0
2014-Oct-14 16:27N 55°60' E 012°45'0 0.0
2014-Oct-14 15:33N 55°60' E 012°45'0 0.0
2014-Oct-14 14:33N 55°60' E 012°45'0 0.0
2014-Oct-14 13:33N 55°60' E 012°45'0 0.0
2014-Oct-14 12:30N 55°60' E 012°45'0 0.0
2014-Oct-14 11:33N 55°60' E 012°45'0 0.0
2014-Oct-14 10:33N 55°60' E 012°45'0 0.0
2014-Oct-14 09:30N 55°60' E 012°45'0 0.0
2014-Oct-14 08:33N 55°60' E 012°45'0 0.0
2014-Oct-14 07:33N 55°60' E 012°45'0 0.0
2014-Oct-14 06:33N 55°60' E 012°45'0 0.0
2014-Oct-14 05:33N 55°60' E 012°45'0 0.0
2014-Oct-14 04:33N 55°60' E 012°45'0 0.0
2014-Oct-14 03:33N 55°60' E 012°45'0 0.0
2014-Oct-14 02:33N 55°60' E 012°45'0 0.0
2014-Oct-14 01:33N 55°60' E 012°45'0 0.0
2014-Oct-14 00:30N 55°60' E 012°45'0 0.0
2014-Oct-13 23:27N 55°60' E 012°45'0 0.0
2014-Oct-13 22:33N 55°60' E 012°45'0 0.0
2014-Oct-13 21:33N 55°60' E 012°45'0 0.0
2014-Oct-13 20:33N 55°60' E 012°45'0 0.0
2014-Oct-13 19:33N 55°60' E 012°45'0 0.0
2014-Oct-13 18:27N 55°60' E 012°45'0 0.0
2014-Oct-13 17:33N 55°60' E 012°45'0 0.0
2014-Oct-13 16:33N 55°60' E 012°45'0 0.0
2014-Oct-13 15:33N 55°60' E 012°45'0 0.0
2014-Oct-13 14:33N 55°60' E 012°45'0 0.0
2014-Oct-13 13:33N 55°60' E 012°45'0 0.0
2014-Oct-13 12:33N 55°60' E 012°45'0 0.0
2014-Oct-13 11:33N 55°60' E 012°45'0 0.0
2014-Oct-13 10:33N 55°60' E 012°45'0 0.0
2014-Oct-13 09:33N 55°60' E 012°45'0 0.0
2014-Oct-13 08:33N 55°60' E 012°45'0 0.0
2014-Oct-13 07:33N 55°60' E 012°45'0 0.0
2014-Oct-13 06:33N 55°60' E 012°45'0 0.0
2014-Oct-13 05:33N 55°60' E 012°45'0 0.0
2014-Oct-13 04:33N 55°60' E 012°45'0 0.0
2014-Oct-13 03:33N 55°60' E 012°45'0 0.0
2014-Oct-13 02:33N 55°60' E 012°45'0 0.0
2014-Oct-13 01:33N 55°60' E 012°45'0 0.0
2014-Oct-13 00:33N 55°60' E 012°45'0 0.0
2014-Oct-12 23:33N 55°60' E 012°45'0 0.0
2014-Oct-12 22:33N 55°60' E 012°45'0 0.0
2014-Oct-12 21:33N 55°60' E 012°45'0 0.0
2014-Oct-12 20:33N 55°60' E 012°45'0 0.0
2014-Oct-12 19:33N 55°60' E 012°45'0 0.0
2014-Oct-12 18:33N 55°60' E 012°45'0 0.0
2014-Oct-12 17:33N 55°60' E 012°45'0 0.0
2014-Oct-12 16:30N 55°60' E 012°45'0 0.0
2014-Oct-12 15:33N 55°60' E 012°45'0 0.0
2014-Oct-12 14:33N 55°60' E 012°45'0 0.0
2014-Oct-12 13:30N 55°60' E 012°45'4 4.6
2014-Oct-12 12:34N 56°03' E 012°41'0 0.4
2014-Oct-12 11:31N 56°04' E 012°40'2 2.5
2014-Oct-12 10:33N 56°01' E 012°41'3 3.2
2014-Oct-12 09:33N 55°58' E 012°40'3 3.2
2014-Oct-12 08:32N 55°55' E 012°39'5 4.7
2014-Oct-12 07:32N 55°60' E 012°38'2 1.5
2014-Oct-12 06:31N 55°59' E 012°41'2 2.3
2014-Oct-12 05:32N 55°60' E 012°45'0 0.0
2014-Oct-12 04:32N 55°60' E 012°45'0 0.0
2014-Oct-12 03:32N 55°60' E 012°45'0 0.0
2014-Oct-12 02:32N 55°60' E 012°45'0 0.0
2014-Oct-12 01:32N 55°60' E 012°45'0 0.0
2014-Oct-12 00:32N 55°60' E 012°45'0 0.0
2014-Oct-11 23:32N 55°60' E 012°45'0 0.0
2014-Oct-11 22:32N 55°60' E 012°45'0 0.0
2014-Oct-11 21:32N 55°60' E 012°45'0 0.0
2014-Oct-11 20:32N 55°60' E 012°45'0 0.0
2014-Oct-11 19:32N 55°60' E 012°45'0 0.0
2014-Oct-11 18:32N 55°60' E 012°45'0 0.0
2014-Oct-11 17:32N 55°60' E 012°45'0 0.0
2014-Oct-11 16:32N 55°60' E 012°45'0 0.0
2014-Oct-11 15:32N 55°60' E 012°45'0 0.0
2014-Oct-11 14:32N 55°60' E 012°45'0 0.0
2014-Oct-11 13:32N 55°60' E 012°45'0 0.0
2014-Oct-11 12:32N 55°60' E 012°45'2 1.6
2014-Oct-11 11:33N 56°00' E 012°42'  
Track history (hours):
 
Tides and Currents Weather Stations Pressure Air Temp Water Temp Dewpoint Dewpoint Depression Visibility Wind Speed Wind Dir Waves Ship Positions

Siam

Last reported at 2014-Oct-21 11:32 UTC. Time now 2014-Oct-21 12:05 UTC.
Position N 55°60' E 012°45'.

Length 22 m.

Type: Passenger vessel. MMSI: 265572320.

Date/timePositionNaut miles runAvg speedWind from/ knotsBaromVisibWave heightAir tempDewpointWater temp
2014-Oct-21 11:32N 55°60' E 012°45'0 0.0
2014-Oct-21 10:32N 55°60' E 012°45'0 0.0
2014-Oct-21 09:32N 55°60' E 012°45'0 0.0
2014-Oct-21 08:32N 55°60' E 012°45'0 0.0
2014-Oct-21 07:32N 55°60' E 012°45'0 0.0
2014-Oct-21 06:32N 55°60' E 012°45'0 0.0
2014-Oct-21 05:32N 55°60' E 012°45'0 0.0
2014-Oct-21 04:32N 55°60' E 012°45'0 0.0
2014-Oct-21 03:32N 55°60' E 012°45'0 0.0
2014-Oct-21 02:32N 55°60' E 012°45'0 0.0
2014-Oct-21 01:32N 55°60' E 012°45'0 0.0
2014-Oct-21 00:32N 55°60' E 012°45'0 0.0
2014-Oct-20 23:32N 55°60' E 012°45'0 0.0
2014-Oct-20 22:32N 55°60' E 012°45'0 0.0
2014-Oct-20 21:32N 55°60' E 012°45'0 0.0
2014-Oct-20 20:32N 55°60' E 012°45'0 0.0
2014-Oct-20 19:32N 55°60' E 012°45'0 0.0
2014-Oct-20 18:32N 55°60' E 012°45'0 0.0
2014-Oct-20 17:32N 55°60' E 012°45'0 0.0
2014-Oct-20 16:32N 55°60' E 012°45'0 0.0
2014-Oct-20 15:32N 55°60' E 012°45'0 0.0
2014-Oct-20 14:32N 55°60' E 012°45'0 0.0
2014-Oct-20 13:32N 55°60' E 012°45'0 0.0
2014-Oct-20 12:32N 55°60' E 012°45'0 0.0
2014-Oct-20 11:32N 55°60' E 012°45'0 0.0
2014-Oct-20 10:32N 55°60' E 012°45'0 0.0
2014-Oct-20 09:32N 55°60' E 012°45'0 0.0
2014-Oct-20 08:32N 55°60' E 012°45'0 0.0
2014-Oct-20 07:29N 55°60' E 012°45'0 0.0
2014-Oct-20 06:32N 55°60' E 012°45'0 0.0
2014-Oct-20 05:32N 55°60' E 012°45'0 0.0
2014-Oct-20 04:32N 55°60' E 012°45'0 0.0
2014-Oct-20 03:32N 55°60' E 012°45'0 0.0
2014-Oct-20 02:32N 55°60' E 012°45'0 0.0
2014-Oct-20 01:32N 55°60' E 012°45'0 0.0
2014-Oct-20 00:32N 55°60' E 012°45'0 0.0
2014-Oct-19 23:32N 55°60' E 012°45'0 0.0
2014-Oct-19 22:32N 55°60' E 012°45'0 0.0
2014-Oct-19 21:32N 55°60' E 012°45'0 0.0
2014-Oct-19 20:32N 55°60' E 012°45'0 0.0
2014-Oct-19 19:30N 55°60' E 012°45'0 0.0
2014-Oct-19 18:32N 55°60' E 012°45'0 0.0
2014-Oct-19 17:33N 55°60' E 012°45'0 0.0
2014-Oct-19 16:33N 55°60' E 012°45'0 0.0
2014-Oct-19 15:33N 55°60' E 012°45'0 0.0
2014-Oct-19 14:33N 55°60' E 012°45'0 0.0
2014-Oct-19 13:33N 55°60' E 012°45'2 2.0
2014-Oct-19 12:31N 56°01' E 012°42'0 0.5
2014-Oct-19 11:33N 56°00' E 012°42'0 0.2
2014-Oct-19 10:32N 56°00' E 012°42'2 1.6
2014-Oct-19 09:31N 55°59' E 012°40'0 0.3
2014-Oct-19 08:32N 55°59' E 012°39'2 1.9
2014-Oct-19 07:33N 56°01' E 012°38'1 0.7
2014-Oct-19 06:33N 56°02' E 012°37'4 4.3
2014-Oct-19 05:31N 55°60' E 012°45'0 0.0
2014-Oct-19 04:31N 55°60' E 012°45'0 0.0
2014-Oct-19 03:31N 55°60' E 012°45'0 0.0
2014-Oct-19 02:31N 55°60' E 012°45'0 0.0
2014-Oct-19 01:31N 55°60' E 012°45'0 0.0
2014-Oct-19 00:31N 55°60' E 012°45'0 0.0
2014-Oct-18 23:31N 55°60' E 012°45'0 0.0
2014-Oct-18 22:28N 55°60' E 012°45'0 0.0
2014-Oct-18 21:28N 55°60' E 012°45'0 0.0
2014-Oct-18 20:31N 55°60' E 012°45'0 0.0
2014-Oct-18 19:31N 55°60' E 012°45'0 0.0
2014-Oct-18 18:31N 55°60' E 012°45'0 0.0
2014-Oct-18 17:31N 55°60' E 012°45'0 0.0
2014-Oct-18 16:31N 55°60' E 012°45'0 0.0
2014-Oct-18 15:31N 55°60' E 012°45'0 0.0
2014-Oct-18 14:31N 55°60' E 012°45'0 0.0
2014-Oct-18 13:31N 55°60' E 012°45'0 0.0
2014-Oct-18 12:31N 55°60' E 012°45'0 0.0
2014-Oct-18 11:31N 55°60' E 012°45'0 0.0
2014-Oct-18 10:28N 55°60' E 012°45'0 0.0
2014-Oct-18 09:31N 55°60' E 012°45'0 0.0
2014-Oct-18 08:31N 55°60' E 012°45'0 0.0
2014-Oct-18 07:31N 55°60' E 012°45'0 0.0
2014-Oct-18 06:31N 55°60' E 012°45'0 0.0
2014-Oct-18 05:31N 55°60' E 012°45'0 0.0
2014-Oct-18 04:31N 55°60' E 012°45'0 0.0
2014-Oct-18 03:31N 55°60' E 012°45'0 0.0
2014-Oct-18 02:31N 55°60' E 012°45'0 0.0
2014-Oct-18 01:31N 55°60' E 012°45'0 0.0
2014-Oct-18 00:28N 55°60' E 012°45'0 0.0
2014-Oct-17 23:31N 55°60' E 012°45'0 0.0
2014-Oct-17 22:31N 55°60' E 012°45'0 0.0
2014-Oct-17 21:31N 55°60' E 012°45'0 0.0
2014-Oct-17 20:28N 55°60' E 012°45'0 0.0
2014-Oct-17 19:31N 55°60' E 012°45'0 0.0
2014-Oct-17 18:31N 55°60' E 012°45'0 0.0
2014-Oct-17 17:31N 55°60' E 012°45'0 0.0
2014-Oct-17 16:31N 55°60' E 012°45'0 0.0
2014-Oct-17 15:31N 55°60' E 012°45'0 0.0
2014-Oct-17 14:31N 55°60' E 012°45'0 0.0
2014-Oct-17 13:31N 55°60' E 012°45'0 0.0
2014-Oct-17 12:28N 55°60' E 012°45'0 0.0
2014-Oct-17 11:31N 55°60' E 012°45'0 0.0
2014-Oct-17 10:28N 55°60' E 012°45'2 2.1
2014-Oct-17 09:32N 55°60' E 012°41'2 2.4
2014-Oct-17 08:33N 56°02' E 012°38'2 2.3
2014-Oct-17 07:31N 55°59' E 012°39'0 0.0
2014-Oct-17 06:33N 55°59' E 012°39'3 2.8
2014-Oct-17 05:31N 55°60' E 012°45'0 0.0
2014-Oct-17 04:31N 55°60' E 012°45'0 0.0
2014-Oct-17 03:31N 55°60' E 012°45'0 0.0
2014-Oct-17 02:31N 55°60' E 012°45'0 0.0
2014-Oct-17 01:31N 55°60' E 012°45'0 0.0
2014-Oct-17 00:31N 55°60' E 012°45'0 0.0
2014-Oct-16 23:31N 55°60' E 012°45'0 0.0
2014-Oct-16 22:31N 55°60' E 012°45'0 0.0
2014-Oct-16 21:31N 55°60' E 012°45'0 0.0
2014-Oct-16 20:31N 55°60' E 012°45'0 0.0
2014-Oct-16 19:31N 55°60' E 012°45'0 0.0
2014-Oct-16 18:31N 55°60' E 012°45'0 0.0
2014-Oct-16 17:31N 55°60' E 012°45'0 0.0
2014-Oct-16 16:31N 55°60' E 012°45'0 0.0
2014-Oct-16 15:31N 55°60' E 012°45'0 0.0
2014-Oct-16 14:32N 55°60' E 012°45'0 0.0
2014-Oct-16 13:32N 55°60' E 012°45'0 0.0
2014-Oct-16 12:32N 55°60' E 012°45'2 2.3
2014-Oct-16 11:33N 56°01' E 012°41'3 2.7
2014-Oct-16 10:33N 56°04' E 012°40'1 0.7
2014-Oct-16 09:33N 56°03' E 012°41'4 3.9
2014-Oct-16 08:33N 55°59' E 012°39'0 0.4
2014-Oct-16 07:31N 55°60' E 012°39'1 0.7
2014-Oct-16 06:31N 55°59' E 012°40'3 3.0
2014-Oct-16 05:33N 55°60' E 012°45'0 0.0
2014-Oct-16 04:33N 55°60' E 012°45'0 0.0
2014-Oct-16 03:33N 55°60' E 012°45'0 0.0
2014-Oct-16 02:33N 55°60' E 012°45'0 0.0
2014-Oct-16 01:33N 55°60' E 012°45'0 0.0
2014-Oct-16 00:33N 55°60' E 012°45'0 0.0
2014-Oct-15 23:33N 55°60' E 012°45'0 0.0
2014-Oct-15 22:33N 55°60' E 012°45'0 0.0
2014-Oct-15 21:33N 55°60' E 012°45'0 0.0
2014-Oct-15 20:33N 55°60' E 012°45'0 0.0
2014-Oct-15 19:27N 55°60' E 012°45'0 0.0
2014-Oct-15 18:33N 55°60' E 012°45'0 0.0
2014-Oct-15 17:30N 55°60' E 012°45'0 0.0
2014-Oct-15 16:33N 55°60' E 012°45'0 0.0
2014-Oct-15 15:33N 55°60' E 012°45'0 0.0
2014-Oct-15 14:33N 55°60' E 012°45'0 0.0
2014-Oct-15 13:33N 55°60' E 012°45'0 0.0
2014-Oct-15 12:33N 55°60' E 012°45'0 0.0
2014-Oct-15 11:33N 55°60' E 012°45'0 0.0
2014-Oct-15 10:33N 55°60' E 012°45'0 0.0
2014-Oct-15 09:33N 55°60' E 012°45'0 0.0
2014-Oct-15 08:33N 55°60' E 012°45'0 0.0
2014-Oct-15 07:33N 55°60' E 012°45'0 0.0
2014-Oct-15 06:33N 55°60' E 012°45'0 0.0
2014-Oct-15 05:33N 55°60' E 012°45'0 0.0
2014-Oct-15 04:33N 55°60' E 012°45'0 0.0
2014-Oct-15 03:30N 55°60' E 012°45'0 0.0
2014-Oct-15 02:33N 55°60' E 012°45'0 0.0
2014-Oct-15 01:33N 55°60' E 012°45'0 0.0
2014-Oct-15 00:33N 55°60' E 012°45'0 0.0
2014-Oct-14 23:33N 55°60' E 012°45'0 0.0
2014-Oct-14 22:33N 55°60' E 012°45'0 0.0
2014-Oct-14 21:33N 55°60' E 012°45'0 0.0
2014-Oct-14 20:33N 55°60' E 012°45'0 0.0
2014-Oct-14 19:33N 55°60' E 012°45'0 0.0
2014-Oct-14 18:33N 55°60' E 012°45'0 0.0
2014-Oct-14 17:33N 55°60' E 012°45'0 0.0
2014-Oct-14 16:27N 55°60' E 012°45'0 0.0
2014-Oct-14 15:33N 55°60' E 012°45'0 0.0
2014-Oct-14 14:33N 55°60' E 012°45'0 0.0
2014-Oct-14 13:33N 55°60' E 012°45'0 0.0
2014-Oct-14 12:30N 55°60' E 012°45'0 0.0
2014-Oct-14 11:33N 55°60' E 012°45'0 0.0
2014-Oct-14 10:33N 55°60' E 012°45'0 0.0
2014-Oct-14 09:30N 55°60' E 012°45'0 0.0
2014-Oct-14 08:33N 55°60' E 012°45'0 0.0
2014-Oct-14 07:33N 55°60' E 012°45'0 0.0
2014-Oct-14 06:33N 55°60' E 012°45'0 0.0
2014-Oct-14 05:33N 55°60' E 012°45'0 0.0
2014-Oct-14 04:33N 55°60' E 012°45'0 0.0
2014-Oct-14 03:33N 55°60' E 012°45'0 0.0
2014-Oct-14 02:33N 55°60' E 012°45'0 0.0
2014-Oct-14 01:33N 55°60' E 012°45'0 0.0
2014-Oct-14 00:30N 55°60' E 012°45'0 0.0
2014-Oct-13 23:27N 55°60' E 012°45'0 0.0
2014-Oct-13 22:33N 55°60' E 012°45'0 0.0
2014-Oct-13 21:33N 55°60' E 012°45'0 0.0
2014-Oct-13 20:33N 55°60' E 012°45'0 0.0
2014-Oct-13 19:33N 55°60' E 012°45'0 0.0
2014-Oct-13 18:27N 55°60' E 012°45'0 0.0
2014-Oct-13 17:33N 55°60' E 012°45'0 0.0
2014-Oct-13 16:33N 55°60' E 012°45'0 0.0
2014-Oct-13 15:33N 55°60' E 012°45'0 0.0
2014-Oct-13 14:33N 55°60' E 012°45'0 0.0
2014-Oct-13 13:33N 55°60' E 012°45'0 0.0
2014-Oct-13 12:33N 55°60' E 012°45'0 0.0
2014-Oct-13 11:33N 55°60' E 012°45'0 0.0
2014-Oct-13 10:33N 55°60' E 012°45'0 0.0
2014-Oct-13 09:33N 55°60' E 012°45'0 0.0
2014-Oct-13 08:33N 55°60' E 012°45'0 0.0
2014-Oct-13 07:33N 55°60' E 012°45'0 0.0
2014-Oct-13 06:33N 55°60' E 012°45'0 0.0
2014-Oct-13 05:33N 55°60' E 012°45'0 0.0
2014-Oct-13 04:33N 55°60' E 012°45'0 0.0
2014-Oct-13 03:33N 55°60' E 012°45'0 0.0
2014-Oct-13 02:33N 55°60' E 012°45'0 0.0
2014-Oct-13 01:33N 55°60' E 012°45'0 0.0
2014-Oct-13 00:33N 55°60' E 012°45'0 0.0
2014-Oct-12 23:33N 55°60' E 012°45'0 0.0
2014-Oct-12 22:33N 55°60' E 012°45'0 0.0
2014-Oct-12 21:33N 55°60' E 012°45'0 0.0
2014-Oct-12 20:33N 55°60' E 012°45'0 0.0
2014-Oct-12 19:33N 55°60' E 012°45'0 0.0
2014-Oct-12 18:33N 55°60' E 012°45'0 0.0
2014-Oct-12 17:33N 55°60' E 012°45'0 0.0
2014-Oct-12 16:30N 55°60' E 012°45'0 0.0
2014-Oct-12 15:33N 55°60' E 012°45'0 0.0
2014-Oct-12 14:33N 55°60' E 012°45'0 0.0
2014-Oct-12 13:30N 55°60' E 012°45'4 4.6
2014-Oct-12 12:34N 56°03' E 012°41'0 0.4
2014-Oct-12 11:31N 56°04' E 012°40'2 2.5
2014-Oct-12 10:33N 56°01' E 012°41'3 3.2
2014-Oct-12 09:33N 55°58' E 012°40'3 3.2
2014-Oct-12 08:32N 55°55' E 012°39'5 4.7
2014-Oct-12 07:32N 55°60' E 012°38'2 1.5
2014-Oct-12 06:31N 55°59' E 012°41'2 2.3
2014-Oct-12 05:32N 55°60' E 012°45'0 0.0
2014-Oct-12 04:32N 55°60' E 012°45'0 0.0
2014-Oct-12 03:32N 55°60' E 012°45'0 0.0
2014-Oct-12 02:32N 55°60' E 012°45'0 0.0
2014-Oct-12 01:32N 55°60' E 012°45'0 0.0
2014-Oct-12 00:32N 55°60' E 012°45'0 0.0
2014-Oct-11 23:32N 55°60' E 012°45'0 0.0
2014-Oct-11 22:32N 55°60' E 012°45'0 0.0
2014-Oct-11 21:32N 55°60' E 012°45'0 0.0
2014-Oct-11 20:32N 55°60' E 012°45'0 0.0
2014-Oct-11 19:32N 55°60' E 012°45'0 0.0
2014-Oct-11 18:32N 55°60' E 012°45'0 0.0
2014-Oct-11 17:32N 55°60' E 012°45'0 0.0
2014-Oct-11 16:32N 55°60' E 012°45'0 0.0
2014-Oct-11 15:32N 55°60' E 012°45'0 0.0
2014-Oct-11 14:32N 55°60' E 012°45'0 0.0
2014-Oct-11 13:32N 55°60' E 012°45'0 0.0
2014-Oct-11 12:32N 55°60' E 012°45'2 1.6
2014-Oct-11 11:33N 56°00' E 012°42'  

Dump ship's entire track history